Time;durP1;ratioP1;P1;durP2;ratioP2;P2;SDS_P1;SDS_P2;PMS_P1;PMS_P2;Temp;Humidity;BMP_temperature;BMP_pressure;BME280_temperature;BME280_humidity;BME280_pressure;Samples;Min_cycle;Max_cycle;Signal;HPM_P1;HPM_P2
2022/10/17 00:00:21;;;;;;;;;;;12.00;99.90;;;;;;5146784;27;19922;-89
2022/10/17 00:02:46;;;;;;;;;;;11.60;99.90;;;;;;5147811;27;19923;-88
2022/10/17 00:05:12;;;;;;;;;;;12.60;99.90;;;;;;5172245;27;19919;-88
2022/10/17 00:07:38;;;;;;;;;;;11.70;99.90;;;;;;5175496;27;19945;-87
2022/10/17 00:10:04;;;;;;;;;;;11.50;99.90;;;;;;5140557;27;19930;-87
2022/10/17 00:12:30;;;;;;;;;;;11.50;99.90;;;;;;5155498;27;19954;-88
2022/10/17 00:14:56;;;;;;;;;;;11.50;99.90;;;;;;5140477;27;19923;-88
2022/10/17 00:17:21;;;;;;;;;;;11.50;99.90;;;;;;5134319;27;19927;-88
2022/10/17 00:19:47;;;;;;;;;;;11.50;99.90;;;;;;5118468;27;19930;-87
2022/10/17 00:22:12;;;;;;;;;;;11.60;99.90;;;;;;5115396;27;20053;-89
2022/10/17 00:28:02;;;;;;;;;;;11.60;99.90;;;;;;5151911;27;19970;-87
2022/10/17 00:32:54;;;;;;;;;;;11.60;99.90;;;;;;5131902;27;20026;-87
2022/10/17 00:35:20;;;;;;;;;;;11.70;99.90;;;;;;5109254;27;19935;-87
2022/10/17 00:37:46;;;;;;;;;;;12.30;99.90;;;;;;5092734;27;19924;-87
2022/10/17 00:40:11;;;;;;;;;;;11.70;99.90;;;;;;5093451;27;20259;-89
2022/10/17 00:42:37;;;;;;;;;;;11.70;99.90;;;;;;5075395;27;19924;-88
2022/10/17 00:45:05;;;;;;;;;;;11.70;99.90;;;;;;5077614;27;19934;-88
2022/10/17 00:47:32;;;;;;;;;;;12.00;99.90;;;;;;5114801;27;19923;-88
2022/10/17 00:49:57;;;;;;;;;;;11.70;99.90;;;;;;5099697;27;20054;-87
2022/10/17 00:52:25;;;;;;;;;;;11.70;99.90;;;;;;5097742;27;19930;-89
2022/10/17 00:54:53;;;;;;;;;;;12.60;99.90;;;;;;5098565;27;19962;-88
2022/10/17 00:57:19;;;;;;;;;;;11.70;99.90;;;;;;5114565;27;19939;-88
2022/10/17 00:59:47;;;;;;;;;;;11.70;99.90;;;;;;5077979;27;19935;-89
2022/10/17 01:02:15;;;;;;;;;;;11.60;99.90;;;;;;5095253;27;19923;-89
2022/10/17 01:04:43;;;;;;;;;;;11.60;99.90;;;;;;5093714;27;19923;-89
2022/10/17 01:07:08;;;;;;;;;;;11.60;99.90;;;;;;5093790;27;19978;-88
2022/10/17 01:09:35;;;;;;;;;;;11.70;99.90;;;;;;5093098;27;19979;-89
2022/10/17 01:12:05;;;;;;;;;;;11.70;99.90;;;;;;5114887;27;19968;-88
2022/10/17 01:14:34;;;;;;;;;;;11.70;99.90;;;;;;5132413;27;20251;-87
2022/10/17 01:17:19;;;;;;;;;;;11.80;99.90;;;;;;5131365;27;20420;-85
2022/10/17 01:20:04;;;;;;;;;;;12.40;99.90;;;;;;5089946;27;20385;-86
2022/10/17 01:22:37;;;;;;;;;;;11.80;99.90;;;;;;5130751;27;19923;-86
2022/10/17 01:25:15;;;;;;;;;;;11.80;99.90;;;;;;5148468;27;20382;-86
2022/10/17 01:27:40;;;;;;;;;;;11.80;99.90;;;;;;5148927;27;20022;-87
2022/10/17 01:30:09;;;;;;;;;;;11.80;99.90;;;;;;5148197;27;19962;-87
2022/10/17 01:32:38;;;;;;;;;;;11.80;99.90;;;;;;5131796;27;19927;-88
2022/10/17 01:35:13;;;;;;;;;;;11.80;99.90;;;;;;5151426;27;20442;-87
2022/10/17 01:37:41;;;;;;;;;;;11.80;99.90;;;;;;5134652;27;19929;-87
2022/10/17 01:40:07;;;;;;;;;;;11.80;99.90;;;;;;5134875;27;19923;-87
2022/10/17 01:42:37;;;;;;;;;;;11.90;99.90;;;;;;5135172;27;20354;-87
2022/10/17 01:45:20;;;;;;;;;;;11.90;99.90;;;;;;5153132;27;19930;-87
2022/10/17 01:47:46;;;;;;;;;;;12.00;99.90;;;;;;5134602;27;20296;-87
2022/10/17 01:50:15;;;;;;;;;;;12.10;99.90;;;;;;5138011;27;20373;-88
2022/10/17 01:52:47;;;;;;;;;;;12.20;99.90;;;;;;5138952;27;19923;-88
2022/10/17 01:55:15;;;;;;;;;;;12.20;99.90;;;;;;5134769;27;19926;-89
2022/10/17 01:57:49;;;;;;;;;;;12.30;99.90;;;;;;5156880;27;19923;-88
2022/10/17 02:00:19;;;;;;;;;;;12.30;99.90;;;;;;5156735;27;19988;-88
2022/10/17 02:02:47;;;;;;;;;;;12.40;99.90;;;;;;5138617;27;19977;-87
2022/10/17 02:05:14;;;;;;;;;;;12.40;99.90;;;;;;5155388;27;20428;-88
2022/10/17 02:07:40;;;;;;;;;;;12.90;99.90;;;;;;5138359;27;20021;-88
2022/10/17 02:10:10;;;;;;;;;;;12.50;99.90;;;;;;5153768;27;20355;-88
2022/10/17 02:12:45;;;;;;;;;;;12.50;99.90;;;;;;5152940;27;20338;-88
2022/10/17 02:15:43;;;;;;;;;;;12.50;99.90;;;;;;5152231;27;20043;-88
2022/10/17 02:18:14;;;;;;;;;;;12.50;99.90;;;;;;5080415;27;20338;-88
2022/10/17 02:20:52;;;;;;;;;;;12.50;99.90;;;;;;5155770;27;19923;-89
2022/10/17 02:23:29;;;;;;;;;;;12.50;99.90;;;;;;5156344;27;19930;-89
2022/10/17 02:26:04;;;;;;;;;;;12.50;99.90;;;;;;5138169;27;19927;-88
2022/10/17 02:28:38;;;;;;;;;;;12.50;99.90;;;;;;5138572;27;20021;-88
2022/10/17 02:31:25;;;;;;;;;;;12.50;99.90;;;;;;5137156;27;19923;-88
2022/10/17 02:33:50;;;;;;;;;;;12.50;99.90;;;;;;5137857;27;19923;-87
2022/10/17 02:36:18;;;;;;;;;;;12.40;99.90;;;;;;5155001;27;19930;-87
2022/10/17 02:38:44;;;;;;;;;;;12.50;99.90;;;;;;5137758;27;20086;-87
2022/10/17 02:41:12;;;;;;;;;;;12.40;99.90;;;;;;5155425;27;19966;-88
2022/10/17 02:43:38;;;;;;;;;;;13.00;99.90;;;;;;5154345;27;19927;-87
2022/10/17 02:46:04;;;;;;;;;;;12.40;99.90;;;;;;5155325;27;19967;-87
2022/10/17 02:48:35;;;;;;;;;;;12.40;99.90;;;;;;5137450;27;19922;-87
2022/10/17 02:51:22;;;;;;;;;;;12.40;99.90;;;;;;5137409;27;19930;-87
2022/10/17 02:53:51;;;;;;;;;;;12.40;99.90;;;;;;5138443;27;19922;-88
2022/10/17 02:56:18;;;;;;;;;;;12.40;99.90;;;;;;5137077;27;20293;-87
2022/10/17 02:58:46;;;;;;;;;;;12.40;99.90;;;;;;5139193;27;20355;-86
2022/10/17 03:01:12;;;;;;;;;;;12.40;99.90;;;;;;5154986;27;19944;-87
2022/10/17 03:03:38;;;;;;;;;;;12.80;99.90;;;;;;5138788;27;19923;-87
2022/10/17 03:06:03;;;;;;;;;;;12.50;99.90;;;;;;5123250;27;20294;-87
2022/10/17 03:08:29;;;;;;;;;;;12.50;99.90;;;;;;5140577;27;20118;-87
2022/10/17 03:10:54;;;;;;;;;;;12.50;99.90;;;;;;5120667;27;20349;-88
2022/10/17 03:13:20;;;;;;;;;;;13.20;99.90;;;;;;5122641;27;19929;-87
2022/10/17 03:15:46;;;;;;;;;;;11.10;99.90;;;;;;5158475;27;20305;-87
2022/10/17 03:18:11;;;;;;;;;;;12.40;99.90;;;;;;5128572;27;19922;-87
2022/10/17 03:20:37;;;;;;;;;;;12.40;99.90;;;;;;5146101;27;19929;-87
2022/10/17 03:23:02;;;;;;;;;;;13.70;99.90;;;;;;5148139;27;20369;-87
2022/10/17 03:25:28;;;;;;;;;;;13.20;99.90;;;;;;5165254;27;20309;-88
2022/10/17 03:27:57;;;;;;;;;;;13.30;99.90;;;;;;5140672;27;19931;-88
2022/10/17 03:30:22;;;;;;;;;;;12.50;99.90;;;;;;5137466;27;19922;-88
2022/10/17 03:32:48;;;;;;;;;;;12.50;99.90;;;;;;5121188;27;19945;-88
2022/10/17 03:35:13;;;;;;;;;;;12.40;99.90;;;;;;5136702;27;20021;-88
2022/10/17 03:37:39;;;;;;;;;;;12.50;99.90;;;;;;5154429;27;20266;-88
2022/10/17 03:40:05;;;;;;;;;;;12.90;99.90;;;;;;5119649;27;19926;-87
2022/10/17 03:42:30;;;;;;;;;;;12.50;99.90;;;;;;5136371;27;19922;-87
2022/10/17 03:44:56;;;;;;;;;;;12.50;99.90;;;;;;5119832;27;19983;-87
2022/10/17 03:47:21;;;;;;;;;;;12.80;99.90;;;;;;5136588;27;20412;-87
2022/10/17 03:49:47;;;;;;;;;;;12.80;99.90;;;;;;5136836;27;20401;-87
2022/10/17 03:52:13;;;;;;;;;;;12.60;99.90;;;;;;5136243;27;20367;-87
2022/10/17 03:54:38;;;;;;;;;;;12.60;99.90;;;;;;5153506;27;20289;-87
2022/10/17 03:57:04;;;;;;;;;;;12.60;99.90;;;;;;5136156;27;19974;-88
2022/10/17 03:59:29;;;;;;;;;;;12.70;99.90;;;;;;5153636;27;20009;-88
2022/10/17 04:01:55;;;;;;;;;;;12.70;99.90;;;;;;5136323;27;20289;-88
2022/10/17 04:04:20;;;;;;;;;;;13.70;99.90;;;;;;5154447;27;19922;-87
2022/10/17 04:06:46;;;;;;;;;;;12.80;99.90;;;;;;5153870;27;19930;-88
2022/10/17 04:09:12;;;;;;;;;;;13.80;99.90;;;;;;5136159;27;19929;-88
2022/10/17 04:11:37;;;;;;;;;;;12.80;99.90;;;;;;5153543;27;19930;-88
2022/10/17 04:14:03;;;;;;;;;;;12.80;99.90;;;;;;5135717;27;19923;-87
2022/10/17 04:16:28;;;;;;;;;;;12.80;99.90;;;;;;5135993;27;19923;-89
2022/10/17 04:18:56;;;;;;;;;;;12.80;99.90;;;;;;5135888;27;19952;-87
2022/10/17 04:21:23;;;;;;;;;;;12.70;99.90;;;;;;5153289;27;20009;-90
2022/10/17 04:23:53;;;;;;;;;;;12.70;99.90;;;;;;5137059;27;19923;-92
2022/10/17 04:26:19;;;;;;;;;;;12.70;99.90;;;;;;5137302;27;19961;-91
2022/10/17 04:28:44;;;;;;;;;;;12.70;99.90;;;;;;5154583;27;19927;-91
2022/10/17 04:31:11;;;;;;;;;;;13.40;99.90;;;;;;5136518;27;20254;-91
2022/10/17 04:33:36;;;;;;;;;;;12.60;99.90;;;;;;5136779;27;19978;-90
2022/10/17 04:36:04;;;;;;;;;;;12.70;99.90;;;;;;5136854;27;19923;-91
2022/10/17 04:38:29;;;;;;;;;;;12.70;99.90;;;;;;5153762;27;19923;-91
2022/10/17 04:41:01;;;;;;;;;;;13.40;99.90;;;;;;5136087;27;19933;-90
2022/10/17 04:43:28;;;;;;;;;;;12.70;99.90;;;;;;5136165;27;20373;-90
2022/10/17 04:45:55;;;;;;;;;;;12.70;99.90;;;;;;5136956;27;19930;-89
2022/10/17 04:48:21;;;;;;;;;;;12.70;99.90;;;;;;5153475;27;19922;-90
2022/10/17 04:50:53;;;;;;;;;;;12.70;99.90;;;;;;5136930;27;19930;-87
2022/10/17 04:53:19;;;;;;;;;;;12.70;99.90;;;;;;5135135;27;19923;-88
2022/10/17 04:55:45;;;;;;;;;;;13.10;99.90;;;;;;5135570;27;19934;-88
2022/10/17 04:58:10;;;;;;;;;;;12.80;99.90;;;;;;5152654;27;20370;-88
2022/10/17 05:00:36;;;;;;;;;;;12.80;99.90;;;;;;5118402;27;19923;-89
2022/10/17 05:03:02;;;;;;;;;;;12.80;99.90;;;;;;5135932;27;19967;-88
2022/10/17 05:05:27;;;;;;;;;;;12.80;99.90;;;;;;5134647;27;20294;-86
2022/10/17 05:07:53;;;;;;;;;;;13.90;99.90;;;;;;5134829;27;19922;-86
2022/10/17 05:10:18;;;;;;;;;;;13.60;99.90;;;;;;5134565;27;19923;-87
2022/10/17 05:12:45;;;;;;;;;;;12.80;99.90;;;;;;5134701;27;19927;-87
2022/10/17 05:15:11;;;;;;;;;;;12.90;99.90;;;;;;5151783;27;19923;-86
2022/10/17 05:17:36;;;;;;;;;;;13.70;99.90;;;;;;5117904;27;19922;-88
2022/10/17 05:20:02;;;;;;;;;;;13.10;99.90;;;;;;5118307;27;19991;-88
2022/10/17 05:22:28;;;;;;;;;;;13.00;99.90;;;;;;5117982;27;20340;-88
2022/10/17 05:24:53;;;;;;;;;;;12.90;99.90;;;;;;5152425;27;19922;-86
2022/10/17 05:27:19;;;;;;;;;;;14.20;99.90;;;;;;5134215;27;20017;-87
2022/10/17 05:29:44;;;;;;;;;;;13.00;99.90;;;;;;5135620;27;19926;-87
2022/10/17 05:32:11;;;;;;;;;;;13.00;99.90;;;;;;5135218;27;20018;-90
2022/10/17 05:34:36;;;;;;;;;;;13.00;99.90;;;;;;5134831;27;19923;-87
2022/10/17 05:37:02;;;;;;;;;;;13.10;99.90;;;;;;5135136;27;19922;-88
2022/10/17 05:39:27;;;;;;;;;;;13.10;99.90;;;;;;5117866;27;19926;-89
2022/10/17 05:41:53;;;;;;;;;;;13.10;99.90;;;;;;5119315;27;20385;-95
2022/10/17 05:44:18;;;;;;;;;;;13.00;99.90;;;;;;5135564;27;19999;-91
2022/10/17 05:46:46;;;;;;;;;;;13.20;99.90;;;;;;5135320;27;19933;-91
2022/10/17 05:49:12;;;;;;;;;;;13.10;99.90;;;;;;5136363;27;19926;-91
2022/10/17 05:51:37;;;;;;;;;;;13.00;99.90;;;;;;5136931;27;19929;-91
2022/10/17 05:54:07;;;;;;;;;;;13.10;99.90;;;;;;5140699;27;20300;-91
2022/10/17 05:56:32;;;;;;;;;;;13.10;99.90;;;;;;5122713;27;19930;-91
2022/10/17 05:58:58;;;;;;;;;;;13.10;99.90;;;;;;5140477;27;19923;-91
2022/10/17 06:01:23;;;;;;;;;;;14.10;99.90;;;;;;5122477;27;20446;-91
2022/10/17 06:03:49;;;;;;;;;;;13.10;99.90;;;;;;5122436;27;19923;-91
2022/10/17 06:06:16;;;;;;;;;;;13.20;99.90;;;;;;5157580;27;19933;-90
2022/10/17 06:08:42;;;;;;;;;;;13.10;99.90;;;;;;5157178;27;19922;-90
2022/10/17 06:11:08;;;;;;;;;;;13.10;99.90;;;;;;5140423;27;19922;-91
2022/10/17 06:13:34;;;;;;;;;;;13.20;99.90;;;;;;5122315;27;19929;-92
2022/10/17 06:16:00;;;;;;;;;;;13.20;99.90;;;;;;5139870;27;20203;-90
2022/10/17 06:18:26;;;;;;;;;;;13.20;99.90;;;;;;5139475;27;19938;-92
2022/10/17 06:20:52;;;;;;;;;;;13.30;99.90;;;;;;5156778;27;19985;-91
2022/10/17 06:23:18;;;;;;;;;;;14.00;99.90;;;;;;5157537;27;19973;-91
2022/10/17 06:25:43;;;;;;;;;;;13.60;99.90;;;;;;5143169;27;19922;-91
2022/10/17 06:28:10;;;;;;;;;;;13.40;99.90;;;;;;5164702;27;19966;-95
2022/10/17 06:30:39;;;;;;;;;;;13.40;99.90;;;;;;5148822;27;19934;-93
2022/10/17 06:33:05;;;;;;;;;;;13.50;99.90;;;;;;5169549;27;19926;-94
2022/10/17 06:35:30;;;;;;;;;;;13.50;99.90;;;;;;5168663;27;19922;-94
2022/10/17 06:37:56;;;;;;;;;;;13.50;99.90;;;;;;5151607;27;19922;-96
2022/10/17 06:40:22;;;;;;;;;;;13.70;99.90;;;;;;5151176;27;19933;-96
2022/10/17 06:42:47;;;;;;;;;;;13.70;99.90;;;;;;5151704;27;19986;-94
2022/10/17 06:45:13;;;;;;;;;;;13.80;99.90;;;;;;5151821;27;19927;-95
2022/10/17 06:47:40;;;;;;;;;;;13.90;99.90;;;;;;5164184;27;19922;-94
2022/10/17 06:50:08;;;;;;;;;;;13.90;99.90;;;;;;5129904;27;19923;-96
2022/10/17 06:52:34;;;;;;;;;;;14.00;99.90;;;;;;5142634;27;20013;-96
2022/10/17 06:54:59;;;;;;;;;;;14.10;99.90;;;;;;5122847;27;19969;-96
2022/10/17 06:57:26;;;;;;;;;;;14.20;99.90;;;;;;5143061;27;19974;-95
2022/10/17 06:59:53;;;;;;;;;;;14.20;99.90;;;;;;5139060;27;19922;-96
2022/10/17 07:02:19;;;;;;;;;;;14.30;99.90;;;;;;5139828;27;19930;-95
2022/10/17 07:04:45;;;;;;;;;;;14.30;99.90;;;;;;5138127;27;19934;-94
2022/10/17 07:07:10;;;;;;;;;;;15.30;99.90;;;;;;5140361;27;19922;-96
2022/10/17 07:09:36;;;;;;;;;;;14.40;99.90;;;;;;5140485;27;20286;-95
2022/10/17 07:12:02;;;;;;;;;;;14.40;99.90;;;;;;5141061;27;20017;-95
2022/10/17 07:14:30;;;;;;;;;;;14.50;99.90;;;;;;5140604;27;20059;-96
2022/10/17 07:16:59;;;;;;;;;;;14.50;99.90;;;;;;5141965;27;19988;-95
2022/10/17 07:19:28;;;;;;;;;;;14.50;99.90;;;;;;5141230;27;19958;-96
2022/10/17 07:21:53;;;;;;;;;;;14.60;99.90;;;;;;5143368;27;20281;-95
2022/10/17 07:24:19;;;;;;;;;;;14.60;99.90;;;;;;5161460;27;19923;-95
2022/10/17 07:26:45;;;;;;;;;;;14.70;99.90;;;;;;5144367;27;19937;-95
2022/10/17 07:29:11;;;;;;;;;;;15.90;99.90;;;;;;5141008;27;19930;-96
2022/10/17 07:31:36;;;;;;;;;;;14.80;99.90;;;;;;5154991;27;19923;-95
2022/10/17 07:34:03;;;;;;;;;;;14.90;99.90;;;;;;5157161;27;19923;-96
2022/10/17 07:36:29;;;;;;;;;;;15.00;99.90;;;;;;5160237;27;19940;-95
2022/10/17 07:38:55;;;;;;;;;;;15.10;99.90;;;;;;5155756;27;19927;-96
2022/10/17 07:41:20;;;;;;;;;;;15.20;99.90;;;;;;5130648;27;19923;-94
2022/10/17 07:43:46;;;;;;;;;;;15.30;99.90;;;;;;5143099;27;19919;-95
2022/10/17 07:46:11;;;;;;;;;;;15.30;99.90;;;;;;5141028;27;20003;-96
2022/10/17 07:48:38;;;;;;;;;;;15.40;99.90;;;;;;5142184;27;19922;-95
2022/10/17 07:51:04;;;;;;;;;;;15.50;99.90;;;;;;5140546;27;19974;-96
2022/10/17 07:53:30;;;;;;;;;;;15.50;99.90;;;;;;5143843;27;19923;-95
2022/10/17 07:55:56;;;;;;;;;;;15.60;99.90;;;;;;5141205;27;19923;-94
2022/10/17 07:58:22;;;;;;;;;;;15.60;99.90;;;;;;5139540;27;19958;-92
2022/10/17 08:00:48;;;;;;;;;;;15.80;99.90;;;;;;5120425;27;19923;-92
2022/10/17 08:03:13;;;;;;;;;;;15.70;99.90;;;;;;5138191;27;19930;-92
2022/10/17 08:05:39;;;;;;;;;;;16.40;99.90;;;;;;5120434;27;19923;-92
2022/10/17 08:08:05;;;;;;;;;;;15.90;99.90;;;;;;5120422;27;19950;-92
2022/10/17 08:10:30;;;;;;;;;;;16.00;99.90;;;;;;5137721;27;19945;-92
2022/10/17 08:12:56;;;;;;;;;;;16.20;99.90;;;;;;5120155;27;19945;-92
2022/10/17 08:15:23;;;;;;;;;;;16.30;99.90;;;;;;5136636;27;20130;-92
2022/10/17 08:17:48;;;;;;;;;;;16.50;99.90;;;;;;5137185;27;20366;-92
2022/10/17 08:20:16;;;;;;;;;;;16.60;99.90;;;;;;5144576;27;19923;-96
2022/10/17 08:22:42;;;;;;;;;;;16.60;99.90;;;;;;5146711;27;19923;-96
2022/10/17 08:25:08;;;;;;;;;;;16.70;99.90;;;;;;5099936;27;19931;-96
2022/10/17 08:27:35;;;;;;;;;;;16.70;99.90;;;;;;5080665;27;19923;-95
2022/10/17 08:30:04;;;;;;;;;;;16.50;99.90;;;;;;5131070;27;19923;-95
2022/10/17 08:32:33;;;;;;;;;;;16.80;99.90;;;;;;5097971;27;19939;-92
2022/10/17 08:34:58;;;;;;;;;;;16.80;99.90;;;;;;5080836;27;20055;-94
2022/10/17 08:37:25;;;;;;;;;;;16.90;99.90;;;;;;5083365;27;19967;-96
2022/10/17 08:39:54;;;;;;;;;;;16.90;99.90;;;;;;5114762;27;20020;-95
2022/10/17 08:42:44;;;;;;;;;;;16.90;99.90;;;;;;5082479;27;19924;-96
2022/10/17 08:45:10;;;;;;;;;;;16.90;99.90;;;;;;5113265;27;19939;-96
2022/10/17 08:47:39;;;;;;;;;;;16.90;99.90;;;;;;5117363;27;19966;-96
2022/10/17 08:50:06;;;;;;;;;;;17.00;99.90;;;;;;5115579;27;19928;-95
2022/10/17 08:52:36;;;;;;;;;;;17.10;99.90;;;;;;5116554;27;19915;-95
2022/10/17 08:55:02;;;;;;;;;;;17.10;99.90;;;;;;5132927;27;19920;-95
2022/10/17 08:57:28;;;;;;;;;;;17.10;99.90;;;;;;5143597;27;19934;-92
2022/10/17 08:59:55;;;;;;;;;;;17.20;99.90;;;;;;5141731;27;19919;-96
2022/10/17 09:02:26;;;;;;;;;;;17.90;99.90;;;;;;5160110;27;19948;-96
2022/10/17 09:05:02;;;;;;;;;;;17.30;99.90;;;;;;5160279;27;19943;-95
2022/10/17 09:07:48;;;;;;;;;;;17.40;99.90;;;;;;5178037;27;19922;-95
2022/10/17 09:10:32;;;;;;;;;;;17.40;99.90;;;;;;5108805;27;19950;-95
2022/10/17 09:13:06;;;;;;;;;;;17.40;99.90;;;;;;5161179;27;19929;-96
2022/10/17 09:15:50;;;;;;;;;;;17.40;99.90;;;;;;5156508;27;19944;-94
2022/10/17 09:18:17;;;;;;;;;;;17.40;99.90;;;;;;5159503;27;19919;-95
2022/10/17 09:20:43;;;;;;;;;;;17.40;99.90;;;;;;5160819;27;19971;-94
2022/10/17 09:23:14;;;;;;;;;;;17.40;99.90;;;;;;5159088;27;19923;-95
2022/10/17 09:25:42;;;;;;;;;;;17.40;99.90;;;;;;5153288;27;19934;-95
2022/10/17 09:28:13;;;;;;;;;;;17.40;99.90;;;;;;5147283;27;20120;-95
2022/10/17 09:30:46;;;;;;;;;;;17.50;99.90;;;;;;5148112;27;19922;-95
2022/10/17 09:33:14;;;;;;;;;;;17.50;99.90;;;;;;5130390;27;19923;-96
2022/10/17 09:35:44;;;;;;;;;;;17.50;99.90;;;;;;5161419;27;19923;-96
2022/10/17 09:38:15;;;;;;;;;;;17.50;99.90;;;;;;5126799;27;21497;-94
2022/10/17 09:40:41;;;;;;;;;;;17.50;99.90;;;;;;5142947;27;19923;-94
2022/10/17 09:43:10;;;;;;;;;;;17.50;99.90;;;;;;5126362;27;19930;-95
2022/10/17 09:45:42;;;;;;;;;;;17.50;99.90;;;;;;5138714;27;19994;-96
2022/10/17 09:48:21;;;;;;;;;;;17.50;99.90;;;;;;5137149;27;19923;-96
2022/10/17 09:50:47;;;;;;;;;;;17.50;99.90;;;;;;5138041;27;19927;-95
2022/10/17 09:53:14;;;;;;;;;;;17.50;99.90;;;;;;5138635;27;20015;-95
2022/10/17 09:55:42;;;;;;;;;;;17.50;99.90;;;;;;5142967;27;19923;-95
2022/10/17 09:58:08;;;;;;;;;;;17.60;99.90;;;;;;5148578;27;19985;-96
2022/10/17 10:00:40;;;;;;;;;;;17.50;99.90;;;;;;5152261;27;19923;-96
2022/10/17 10:03:25;;;;;;;;;;;17.50;99.90;;;;;;5133258;27;19978;-96
2022/10/17 10:06:04;;;;;;;;;;;17.50;99.90;;;;;;5150428;27;19908;-96
2022/10/17 10:08:34;;;;;;;;;;;17.40;99.90;;;;;;5145328;27;19955;-96
2022/10/17 10:11:03;;;;;;;;;;;17.40;99.90;;;;;;5140051;27;19929;-96
2022/10/17 10:16:52;;;;;;;;;;;17.30;99.90;;;;;;5170473;27;19968;-96
2022/10/17 10:19:27;;;;;;;;;;;17.20;99.90;;;;;;5138336;27;20294;-96
2022/10/17 10:21:55;;;;;;;;;;;17.20;99.90;;;;;;5133610;27;20331;-96
2022/10/17 10:24:21;;;;;;;;;;;17.10;99.90;;;;;;5133113;27;20018;-94
2022/10/17 10:26:48;;;;;;;;;;;17.10;99.90;;;;;;5115013;27;19923;-94
2022/10/17 10:29:20;;;;;;;;;;;17.00;99.90;;;;;;5133072;27;20052;-94
2022/10/17 10:31:46;;;;;;;;;;;16.90;99.90;;;;;;5133430;27;19926;-94
2022/10/17 10:34:18;;;;;;;;;;;16.90;99.90;;;;;;5115462;27;19946;-94
2022/10/17 10:36:43;;;;;;;;;;;16.90;99.90;;;;;;5132939;27;19923;-94
2022/10/17 10:39:13;;;;;;;;;;;16.90;99.90;;;;;;5133619;27;20022;-92
2022/10/17 10:41:47;;;;;;;;;;;16.90;99.90;;;;;;5136292;27;19923;-93
2022/10/17 10:44:13;;;;;;;;;;;16.90;99.90;;;;;;5135858;27;19923;-93
2022/10/17 10:46:38;;;;;;;;;;;16.90;99.90;;;;;;5138208;27;19923;-93
2022/10/17 10:49:24;;;;;;;;;;;16.90;99.90;;;;;;5137444;27;20515;-93
2022/10/17 10:51:51;;;;;;;;;;;16.90;99.90;;;;;;5152682;27;19926;-93
2022/10/17 10:54:19;;;;;;;;;;;16.90;99.90;;;;;;5119279;27;19923;-93
2022/10/17 10:56:48;;;;;;;;;;;16.90;99.90;;;;;;5149972;27;19938;-96
2022/10/17 10:59:21;;;;;;;;;;;16.90;99.90;;;;;;5156388;27;20013;-96
2022/10/17 11:01:53;;;;;;;;;;;16.90;99.90;;;;;;5152360;27;20394;-96
2022/10/17 11:04:45;;;;;;;;;;;16.90;99.90;;;;;;5157063;27;20448;-96
2022/10/17 11:07:30;;;;;;;;;;;16.90;99.90;;;;;;5128770;27;19923;-96
2022/10/17 11:09:59;;;;;;;;;;;16.90;99.90;;;;;;5136786;27;20456;-96
2022/10/17 11:12:27;;;;;;;;;;;16.90;99.90;;;;;;5138136;27;20083;-96
2022/10/17 11:15:16;;;;;;;;;;;17.30;99.90;;;;;;5137640;27;19931;-96
2022/10/17 11:18:01;;;;;;;;;;;16.90;99.90;;;;;;5159418;27;19933;-96
2022/10/17 11:20:38;;;;;;;;;;;16.90;99.90;;;;;;5145019;27;19923;-96
2022/10/17 11:23:13;;;;;;;;;;;17.00;99.90;;;;;;5148254;27;19923;-96
2022/10/17 11:25:40;;;;;;;;;;;17.00;99.90;;;;;;5149216;27;19931;-96
2022/10/17 11:28:14;;;;;;;;;;;17.00;99.90;;;;;;5143271;27;19923;-96
2022/10/17 11:30:45;;;;;;;;;;;17.00;99.90;;;;;;5143698;27;19923;-96
2022/10/17 11:33:14;;;;;;;;;;;17.00;99.90;;;;;;5143924;27;19980;-96
2022/10/17 11:35:43;;;;;;;;;;;17.60;99.90;;;;;;5148270;27;19927;-96
2022/10/17 11:38:27;;;;;;;;;;;17.30;99.90;;;;;;5148836;27;19951;-96
2022/10/17 11:40:55;;;;;;;;;;;17.00;99.90;;;;;;5149801;27;19979;-96
2022/10/17 11:43:29;;;;;;;;;;;17.00;99.90;;;;;;5148631;27;19994;-96
2022/10/17 11:46:11;;;;;;;;;;;17.00;99.90;;;;;;5147415;27;19927;-96
2022/10/17 11:48:39;;;;;;;;;;;17.00;99.90;;;;;;5149148;27;19977;-96
2022/10/17 11:51:24;;;;;;;;;;;16.40;99.90;;;;;;5149158;27;19927;-96
2022/10/17 11:54:05;;;;;;;;;;;16.90;99.90;;;;;;5171966;27;19923;-96
2022/10/17 11:56:34;;;;;;;;;;;16.90;99.90;;;;;;5150736;27;19923;-96
2022/10/17 11:59:12;;;;;;;;;;;16.90;99.90;;;;;;5154550;27;19924;-96
2022/10/17 12:01:53;;;;;;;;;;;16.90;99.90;;;;;;5144875;27;19955;-96
2022/10/17 12:04:39;;;;;;;;;;;16.90;99.90;;;;;;5153159;27;19986;-96
2022/10/17 12:07:16;;;;;;;;;;;16.90;99.90;;;;;;5143234;27;19923;-96
2022/10/17 12:09:58;;;;;;;;;;;16.90;99.90;;;;;;5156985;27;19923;-95
2022/10/17 12:12:23;;;;;;;;;;;16.90;99.90;;;;;;5154422;27;19923;-96
2022/10/17 12:14:49;;;;;;;;;;;16.90;99.90;;;;;;5145367;27;19930;-96
2022/10/17 12:17:29;;;;;;;;;;;16.90;99.90;;;;;;5149475;27;19927;-96
2022/10/17 12:20:15;;;;;;;;;;;16.90;99.90;;;;;;5149832;27;19923;-96
2022/10/17 12:23:08;;;;;;;;;;;16.90;99.90;;;;;;5149897;27;20611;-96
2022/10/17 12:25:38;;;;;;;;;;;16.90;99.90;;;;;;5170753;27;19924;-96
2022/10/17 12:28:22;;;;;;;;;;;16.90;99.90;;;;;;5150780;27;19933;-96
2022/10/17 12:31:11;;;;;;;;;;;17.00;99.90;;;;;;5151830;27;19930;-96
2022/10/17 12:33:56;;;;;;;;;;;17.00;99.90;;;;;;5153704;27;20461;-96
2022/10/17 12:39:02;;;;;;;6.95;4.13;;;17.20;99.90;;;;;;5151549;27;20445;-96
2022/10/17 12:41:38;;;;;;;7.22;4.88;;;17.20;99.90;;;;;;5136283;28;20059;-96
2022/10/17 12:44:20;;;;;;;6.05;4.57;;;17.20;99.90;;;;;;5161088;27;20058;-96
2022/10/17 12:47:04;;;;;;;9.85;5.03;;;17.20;99.90;;;;;;5125783;28;20079;-96
2022/10/17 12:49:39;;;;;;;8.63;4.75;;;17.20;99.90;;;;;;5127998;28;20069;-96
2022/10/17 12:52:23;;;;;;;7.40;5.07;;;17.20;99.90;;;;;;5130059;28;20035;-96
2022/10/17 12:55:08;;;;;;;6.68;5.03;;;17.10;99.90;;;;;;5127190;28;20054;-96
2022/10/17 12:57:42;;;;;;;6.68;4.70;;;16.50;99.90;;;;;;5129872;28;20054;-96
2022/10/17 13:00:18;;;;;;;6.63;4.72;;;17.20;99.90;;;;;;5142137;27;20050;-96
2022/10/17 13:02:44;;;;;;;6.10;4.53;;;17.20;99.90;;;;;;5112750;28;20067;-95
2022/10/17 13:05:35;;;;;;;6.40;4.30;;;17.10;99.90;;;;;;5129180;28;20138;-94
2022/10/17 13:08:04;;;;;;;10.00;4.60;;;17.10;99.90;;;;;;5111132;28;20501;-94
2022/10/17 13:10:36;;;;;;;9.73;4.50;;;17.00;99.90;;;;;;5129431;28;20044;-94
2022/10/17 13:13:27;;;;;;;6.00;4.45;;;17.00;99.90;;;;;;5111183;28;20395;-95
2022/10/17 13:15:54;;;;;;;8.48;4.00;;;17.00;99.90;;;;;;5117691;28;20051;-96
2022/10/17 13:18:23;;;;;;;7.57;4.38;;;17.00;99.90;;;;;;5116263;28;20043;-94
2022/10/17 13:20:56;;;;;;;6.80;4.30;;;17.00;99.90;;;;;;5121788;28;20100;-94
2022/10/17 13:23:29;;;;;;;5.32;4.20;;;17.00;99.90;;;;;;5122931;28;20135;-93
2022/10/17 13:26:15;;;;;;;6.75;4.57;;;16.90;99.90;;;;;;5122939;28;20043;-92
2022/10/17 13:28:42;;;;;;;7.82;4.63;;;16.90;99.90;;;;;;5121527;28;20529;-94
2022/10/17 13:31:28;;;;;;;12.35;4.15;;;16.90;99.90;;;;;;5121640;28;20046;-95
2022/10/17 13:33:57;;;;;;;6.43;4.10;;;16.80;99.90;;;;;;5128663;28;20035;-93
2022/10/17 13:36:24;;;;;;;5.93;3.15;;;16.80;99.90;;;;;;5130839;28;20043;-95
2022/10/17 13:38:49;;;;;;;4.10;2.83;;;16.70;99.90;;;;;;5098289;28;20046;-95
2022/10/17 13:41:21;;;;;;;7.78;3.45;;;16.60;99.90;;;;;;5151124;27;20047;-95
2022/10/17 13:43:47;;;;;;;5.53;3.20;;;16.60;99.90;;;;;;5130777;28;20047;-94
2022/10/17 13:46:24;;;;;;;8.02;3.67;;;16.60;99.90;;;;;;5084227;28;20040;-93
2022/10/17 13:48:50;;;;;;;5.43;4.20;;;17.00;99.90;;;;;;5109856;28;20047;-93
2022/10/17 13:51:16;;;;;;;9.45;4.00;;;16.50;99.90;;;;;;5085328;28;20046;-94
2022/10/17 13:53:43;;;;;;;7.72;3.95;;;16.50;99.90;;;;;;5067781;28;20047;-94
2022/10/17 13:56:11;;;;;;;6.68;3.30;;;16.50;99.90;;;;;;5068544;28;20046;-95
2022/10/17 13:58:46;;;;;;;3.65;3.00;;;16.40;99.90;;;;;;5096558;28;20059;-93
2022/10/17 14:01:13;;;;;;;7.65;3.58;;;16.40;99.90;;;;;;5117647;28;20076;-95
2022/10/17 14:03:44;;;;;;;6.93;3.53;;;16.30;99.90;;;;;;5100593;28;20044;-94
2022/10/17 14:06:22;;;;;;;5.35;3.20;;;16.40;99.90;;;;;;5097197;28;20043;-94
2022/10/17 14:09:05;;;;;;;7.65;3.42;;;16.40;99.90;;;;;;5097095;28;20044;-95
2022/10/17 14:11:41;;;;;;;5.60;2.15;;;16.30;99.90;;;;;;5114298;28;20047;-94
2022/10/17 14:14:23;;;;;;;5.95;1.90;;;16.30;99.90;;;;;;5096543;28;20047;-93
2022/10/17 14:16:49;;;;;;;5.83;1.87;;;17.10;99.90;;;;;;5096180;28;20046;-93
2022/10/17 14:19:36;;;;;;;5.90;2.13;;;16.20;99.90;;;;;;5080076;28;20035;-93
2022/10/17 14:22:26;;;;;;;6.35;2.30;;;16.30;99.90;;;;;;5096617;28;20043;-93
2022/10/17 14:24:53;;;;;;;5.53;1.75;;;16.20;99.90;;;;;;5079607;28;20549;-92
2022/10/17 14:27:36;;;;;;;4.03;2.05;;;16.10;99.90;;;;;;5078915;28;20043;-93
2022/10/17 14:30:27;;;;;;;5.90;2.38;;;16.10;99.90;;;;;;5095162;28;20047;-94